Aeroporto :
LOGIN :

Iscrizione | Disclaimer

   EN    FR    IT 

 










Sommario :    VFR   VFR Marginale   IFR   IFR Intensivo   IFR Molto Intensivo
Visibilità : 
Base nubi : 
>= 8 km
>= 3000ft
5 / 8 km
1000 / 3000 ft
1500m / 5 km
500 / 1000 ft
800 / 1500m
200 / 500 ft
< 800m
< 200 ft
Simboli :   Temporali  Nebbia  Neve Forte  Precipitazioni Forti  Vento > 20 kt
SIGMETs :   Varie  Temporali  Ghiacco  Turbolenza  Onda orograficha  Ceneri Vulcaniche






- Altitudine del aeroporto : 1000 ft
- Codice IATA : PEV


LHPP - Pécs Pogany

ULTIMO METAR :
  • 130701Z 15004KT 1600 BR OVC004 M00/M00 Q0998

METARs OBSOLETI :
  • 130645Z 15003KT 0250 FZFG VV002 M00/M00 Q0997
  • 130615Z 15004KT 0200 FZFG VV002 M00/M00 Q0997
  • 130609Z 14004KT 0150 FZFG VV002 M00/M00 Q0999
  • 130515Z 16002KT 0100 FZFG VV002 M00/M01 Q0997
  • 130445Z 00000KT 0100 FZFG VV002 M01/M01 Q0999

TAF TAF LHPP
Valido dal 13 a 06 ore il 13 a 15 ore UTC


130515Z 1306/1315 VRB01KT 0100 FZFG VV001
BECMG 1306/1309 16008KT 3000 BR BKN010 BKN030
BECMG 1310/1313 CAVOK



MetMap, La meteo Aeronautica in un colpo d'occhio ! - Copyright ORBIFLY Dicembre 2007 - Disclaimer

ORBIFLY MET'MAP TEAM :

Programmazione e sviluppo : Alexandra Zaïnal
Concezione : Baudouin d'Aumeries
Aiuto per la programmazione : Marc-Olivier Méhu
Supporto tecnico e logistico : Manuel Goepfert
Aiuto per la traduzione : Arnaldo La Scala

Contatto : metmap@orbifly.com




FONTI E CREDITI :

   NOAA